Wolf Creek Observed Data For Previous 48 Hours

Caption
Day and Hour Reservoir Elevation (behind dam)* Tailwater Elevation (below dam)* Average Hourly Discharge*
2/20/2017 1 AM CST 702.73 545.53 20
2/20/2017 2 AM CST 702.73 544.63 20
2/20/2017 3 AM CST 702.73 544.03 20
2/20/2017 4 AM CST 702.73 543.33 20
2/20/2017 5 AM CST 702.73 543.03 20
2/20/2017 6 AM CST 702.73 547.03 7,520
2/20/2017 7 AM CST 702.73 547.03 11,900
2/20/2017 8 AM CST 702.73 547.03 11,900
2/20/2017 9 AM CST 702.73 547.03 11,900
2/20/2017 10 AM CST 702.73 547.03 11,900
2/20/2017 11 AM CST 702.73 547.03 7,520
2/20/2017 12 PM CST 702.73 547.03 20
2/20/2017 1 PM CST 702.68 545.98 20
2/20/2017 2 PM CST 702.69 544.89 20
2/20/2017 3 PM CST 702.69 544.09 20
2/20/2017 4 PM CST 702.69 543.39 20
2/20/2017 5 PM CST 702.70 542.90 20
2/20/2017 6 PM CST 702.70 545.70 3,730
2/20/2017 7 PM CST 702.70 546.30 3,770
2/20/2017 8 PM CST 702.70 546.90 3,770
2/20/2017 9 PM CST 702.71 547.11 3,770
2/20/2017 10 PM CST 702.72 544.92 20
2/20/2017 11 PM CST 702.73 543.93 20
2/21/2017 12 AM CST 702.74 543.34 20
2/21/2017 1 AM CST 702.75 542.85 20
2/21/2017 2 AM CST 702.76 542.66 20
2/21/2017 3 AM CST 702.77 542.47 20
2/21/2017 4 AM CST 702.77 542.27 20
2/21/2017 5 AM CST 702.76 547.96 7,580
2/21/2017 6 AM CST 702.75 550.35 11,690
2/21/2017 7 AM CST 702.73 552.13 11,810
2/21/2017 8 AM CST 702.72 552.52 11,900
2/21/2017 9 AM CST 702.70 552.70 11,900
2/21/2017 10 AM CST 702.70 553.10 11,900
2/21/2017 11 AM CST 702.70 550.10 3,870
2/21/2017 12 PM CST 702.70 547.10 20
2/21/2017 1 PM CST 702.70 545.80 70
2/21/2017 2 PM CST 702.70 544.80 70
2/21/2017 3 PM CST 702.70 544.00 70
2/21/2017 4 PM CST 702.70 543.60 20
2/21/2017 5 PM CST 702.70 548.30 7,660
2/21/2017 6 PM CST 702.70 549.50 7,720
2/21/2017 7 PM CST 702.70 549.70 7,720
2/21/2017 8 PM CST 702.70 550.10 7,720
2/21/2017 9 PM CST 702.70 550.30 7,800
2/21/2017 10 PM CST 702.71 547.51 20
2/21/2017 11 PM CST 702.71 545.71 20
2/22/2017 12 AM CST 702.72 544.62 20

Elevations are in feet above sea level. Discharges are in cubic feet per second and are reported at the end of the hour.